sensor_id;sensor_type;location;lat;lon;timestamp;pressure;altitude;pressure_sealevel;temperature;humidity
47524;BME280;33253;42.144;25.884;2023-02-03T00:00:10;100755.63;;;1.56;100.00
47524;BME280;33253;42.144;25.884;2023-02-03T00:02:35;100773.31;;;1.55;100.00
47524;BME280;33253;42.144;25.884;2023-02-03T00:05:01;100758.81;;;1.54;100.00
47524;BME280;33253;42.144;25.884;2023-02-03T00:07:27;100749.94;;;1.49;100.00
47524;BME280;33253;42.144;25.884;2023-02-03T00:09:54;100741.94;;;1.44;100.00
47524;BME280;33253;42.144;25.884;2023-02-03T00:12:20;100754.41;;;1.63;100.00
47524;BME280;33253;42.144;25.884;2023-02-03T00:14:46;100753.84;;;1.77;100.00
47524;BME280;33253;42.144;25.884;2023-02-03T00:17:11;100737.50;;;1.86;100.00
47524;BME280;33253;42.144;25.884;2023-02-03T00:19:37;100751.41;;;1.79;100.00
47524;BME280;33253;42.144;25.884;2023-02-03T00:22:02;100763.06;;;1.65;100.00
47524;BME280;33253;42.144;25.884;2023-02-03T00:24:27;100735.84;;;1.42;100.00
47524;BME280;33253;42.144;25.884;2023-02-03T00:26:53;100750.81;;;1.49;100.00
47524;BME280;33253;42.144;25.884;2023-02-03T00:29:18;100753.00;;;1.44;100.00
47524;BME280;33253;42.144;25.884;2023-02-03T00:31:48;100710.09;;;1.05;100.00
47524;BME280;33253;42.144;25.884;2023-02-03T00:34:14;100693.44;;;0.98;100.00
47524;BME280;33253;42.144;25.884;2023-02-03T00:36:39;100744.94;;;1.28;100.00
47524;BME280;33253;42.144;25.884;2023-02-03T00:39:05;100734.69;;;1.16;100.00
47524;BME280;33253;42.144;25.884;2023-02-03T00:41:30;100755.44;;;1.10;100.00
47524;BME280;33253;42.144;25.884;2023-02-03T00:43:56;100759.75;;;1.11;100.00
47524;BME280;33253;42.144;25.884;2023-02-03T00:46:21;100741.75;;;0.98;100.00
47524;BME280;33253;42.144;25.884;2023-02-03T00:48:47;100754.06;;;1.04;100.00
47524;BME280;33253;42.144;25.884;2023-02-03T00:51:12;100742.28;;;0.94;100.00
47524;BME280;33253;42.144;25.884;2023-02-03T00:53:38;100752.97;;;0.90;100.00
47524;BME280;33253;42.144;25.884;2023-02-03T00:56:04;100753.31;;;0.94;100.00
47524;BME280;33253;42.144;25.884;2023-02-03T00:58:37;100761.97;;;0.96;100.00
47524;BME280;33253;42.144;25.884;2023-02-03T01:01:03;100765.28;;;0.95;100.00
47524;BME280;33253;42.144;25.884;2023-02-03T01:03:28;100753.09;;;0.91;100.00
47524;BME280;33253;42.144;25.884;2023-02-03T01:05:53;100765.75;;;1.02;100.00
47524;BME280;33253;42.144;25.884;2023-02-03T01:08:19;100759.66;;;1.00;100.00
47524;BME280;33253;42.144;25.884;2023-02-03T01:10:45;100755.97;;;1.06;100.00
47524;BME280;33253;42.144;25.884;2023-02-03T01:13:10;100697.59;;;0.75;100.00
47524;BME280;33253;42.144;25.884;2023-02-03T01:15:35;100761.53;;;1.12;100.00
47524;BME280;33253;42.144;25.884;2023-02-03T01:18:01;100773.63;;;1.15;100.00
47524;BME280;33253;42.144;25.884;2023-02-03T01:20:26;100733.53;;;0.90;100.00
47524;BME280;33253;42.144;25.884;2023-02-03T01:22:52;100741.53;;;1.17;100.00
47524;BME280;33253;42.144;25.884;2023-02-03T01:25:17;100716.81;;;1.04;100.00
47524;BME280;33253;42.144;25.884;2023-02-03T01:27:42;100762.34;;;1.34;100.00
47524;BME280;33253;42.144;25.884;2023-02-03T01:30:08;100734.88;;;1.29;100.00
47524;BME280;33253;42.144;25.884;2023-02-03T01:32:34;100763.78;;;1.52;100.00
47524;BME280;33253;42.144;25.884;2023-02-03T01:34:59;100760.44;;;1.53;100.00
47524;BME280;33253;42.144;25.884;2023-02-03T01:37:25;100748.56;;;1.42;100.00
47524;BME280;33253;42.144;25.884;2023-02-03T01:39:50;100767.88;;;1.50;100.00
47524;BME280;33253;42.144;25.884;2023-02-03T01:42:16;100775.38;;;1.49;100.00
47524;BME280;33253;42.144;25.884;2023-02-03T01:44:43;100727.78;;;1.25;100.00
47524;BME280;33253;42.144;25.884;2023-02-03T01:49:47;100782.75;;;1.45;100.00
47524;BME280;33253;42.144;25.884;2023-02-03T01:52:14;100772.00;;;1.38;100.00
47524;BME280;33253;42.144;25.884;2023-02-03T01:54:43;100766.59;;;1.23;100.00
47524;BME280;33253;42.144;25.884;2023-02-03T01:57:14;100765.75;;;1.02;100.00
47524;BME280;33253;42.144;25.884;2023-02-03T01:59:40;100769.50;;;0.74;100.00
47524;BME280;33253;42.144;25.884;2023-02-03T02:02:07;100739.94;;;0.54;100.00
47524;BME280;33253;42.144;25.884;2023-02-03T02:04:52;100749.19;;;0.74;100.00
47524;BME280;33253;42.144;25.884;2023-02-03T02:07:19;100751.84;;;0.76;100.00
47524;BME280;33253;42.144;25.884;2023-02-03T02:09:45;100760.09;;;0.84;100.00
47524;BME280;33253;42.144;25.884;2023-02-03T02:12:11;100746.00;;;0.77;100.00
47524;BME280;33253;42.144;25.884;2023-02-03T02:14:38;100747.94;;;0.69;100.00
47524;BME280;33253;42.144;25.884;2023-02-03T02:23:08;100752.94;;;1.33;100.00
47524;BME280;33253;42.144;25.884;2023-02-03T02:28:17;100724.59;;;1.28;100.00
47524;BME280;33253;42.144;25.884;2023-02-03T02:33:58;100765.50;;;1.64;100.00
47524;BME280;33253;42.144;25.884;2023-02-03T02:36:47;100743.63;;;1.33;100.00
47524;BME280;33253;42.144;25.884;2023-02-03T02:39:24;100774.66;;;1.39;100.00
47524;BME280;33253;42.144;25.884;2023-02-03T02:42:06;100740.06;;;1.41;100.00
47524;BME280;33253;42.144;25.884;2023-02-03T02:44:38;100779.94;;;1.75;100.00
47524;BME280;33253;42.144;25.884;2023-02-03T02:47:15;100782.69;;;1.88;99.92
47524;BME280;33253;42.144;25.884;2023-02-03T02:49:50;100803.56;;;2.06;99.06
47524;BME280;33253;42.144;25.884;2023-02-03T02:52:20;100808.56;;;2.17;98.78
47524;BME280;33253;42.144;25.884;2023-02-03T02:54:54;100813.66;;;2.17;97.97
47524;BME280;33253;42.144;25.884;2023-02-03T02:57:23;100814.00;;;2.09;97.94
47524;BME280;33253;42.144;25.884;2023-02-03T02:59:50;100815.44;;;1.96;98.61
47524;BME280;33253;42.144;25.884;2023-02-03T03:02:15;100806.00;;;1.83;98.46
47524;BME280;33253;42.144;25.884;2023-02-03T03:04:43;100832.00;;;1.78;99.01
47524;BME280;33253;42.144;25.884;2023-02-03T03:07:17;100837.38;;;1.71;99.28
47524;BME280;33253;42.144;25.884;2023-02-03T03:09:50;100832.50;;;1.52;99.81
47524;BME280;33253;42.144;25.884;2023-02-03T03:12:23;100825.41;;;1.38;100.00
47524;BME280;33253;42.144;25.884;2023-02-03T03:15:00;100812.16;;;0.99;100.00
47524;BME280;33253;42.144;25.884;2023-02-03T03:17:30;100804.47;;;0.67;100.00
47524;BME280;33253;42.144;25.884;2023-02-03T03:20:01;100826.94;;;0.93;100.00
47524;BME280;33253;42.144;25.884;2023-02-03T03:22:34;100771.06;;;0.62;100.00
47524;BME280;33253;42.144;25.884;2023-02-03T03:25:23;100819.44;;;0.84;100.00
47524;BME280;33253;42.144;25.884;2023-02-03T03:27:58;100777.81;;;0.61;100.00
47524;BME280;33253;42.144;25.884;2023-02-03T03:30:32;100838.09;;;1.05;100.00
47524;BME280;33253;42.144;25.884;2023-02-03T03:32:58;100843.03;;;1.14;100.00
47524;BME280;33253;42.144;25.884;2023-02-03T03:35:29;100830.44;;;1.16;100.00
47524;BME280;33253;42.144;25.884;2023-02-03T03:37:59;100830.06;;;1.21;100.00
47524;BME280;33253;42.144;25.884;2023-02-03T03:40:37;100804.13;;;1.15;100.00
47524;BME280;33253;42.144;25.884;2023-02-03T03:43:14;100844.19;;;1.50;100.00
47524;BME280;33253;42.144;25.884;2023-02-03T03:45:57;100849.13;;;1.59;100.00
47524;BME280;33253;42.144;25.884;2023-02-03T03:48:59;100856.59;;;1.68;100.00
47524;BME280;33253;42.144;25.884;2023-02-03T03:53:59;100846.31;;;1.66;100.00
47524;BME280;33253;42.144;25.884;2023-02-03T03:56:30;100852.16;;;1.65;100.00
47524;BME280;33253;42.144;25.884;2023-02-03T03:58:58;100863.09;;;1.64;100.00
47524;BME280;33253;42.144;25.884;2023-02-03T04:01:25;100852.91;;;1.64;100.00
47524;BME280;33253;42.144;25.884;2023-02-03T04:03:55;100815.22;;;1.38;100.00
47524;BME280;33253;42.144;25.884;2023-02-03T04:06:22;100847.59;;;1.61;100.00
47524;BME280;33253;42.144;25.884;2023-02-03T04:08:48;100866.16;;;1.60;100.00
47524;BME280;33253;42.144;25.884;2023-02-03T04:11:13;100877.31;;;1.72;99.65
47524;BME280;33253;42.144;25.884;2023-02-03T04:13:59;100883.38;;;1.85;99.65
47524;BME280;33253;42.144;25.884;2023-02-03T04:16:24;100885.03;;;1.84;99.66
47524;BME280;33253;42.144;25.884;2023-02-03T04:18:49;100884.25;;;1.85;99.21
47524;BME280;33253;42.144;25.884;2023-02-03T04:21:15;100896.44;;;1.89;97.31
47524;BME280;33253;42.144;25.884;2023-02-03T04:23:40;100899.66;;;1.87;98.59
47524;BME280;33253;42.144;25.884;2023-02-03T04:26:06;100885.84;;;1.73;99.75
47524;BME280;33253;42.144;25.884;2023-02-03T04:28:31;100896.06;;;1.63;100.00
47524;BME280;33253;42.144;25.884;2023-02-03T04:30:59;100895.81;;;1.59;100.00
47524;BME280;33253;42.144;25.884;2023-02-03T04:33:25;100888.63;;;1.43;100.00
47524;BME280;33253;42.144;25.884;2023-02-03T04:35:50;100901.50;;;1.35;100.00
47524;BME280;33253;42.144;25.884;2023-02-03T04:38:15;100907.84;;;1.40;100.00
47524;BME280;33253;42.144;25.884;2023-02-03T04:40:41;100919.41;;;1.36;100.00
47524;BME280;33253;42.144;25.884;2023-02-03T04:43:07;100909.38;;;1.27;100.00
47524;BME280;33253;42.144;25.884;2023-02-03T04:45:32;100910.78;;;1.24;100.00
47524;BME280;33253;42.144;25.884;2023-02-03T04:47:58;100908.97;;;1.33;100.00
47524;BME280;33253;42.144;25.884;2023-02-03T04:50:23;100912.28;;;1.42;100.00
47524;BME280;33253;42.144;25.884;2023-02-03T04:52:49;100906.44;;;1.43;100.00
47524;BME280;33253;42.144;25.884;2023-02-03T04:55:14;100904.94;;;1.68;100.00
47524;BME280;33253;42.144;25.884;2023-02-03T04:57:40;100910.00;;;1.78;100.00
47524;BME280;33253;42.144;25.884;2023-02-03T05:00:06;100928.78;;;1.90;99.66
47524;BME280;33253;42.144;25.884;2023-02-03T05:02:31;100916.69;;;1.98;99.14
47524;BME280;33253;42.144;25.884;2023-02-03T05:04:57;100920.59;;;2.05;99.07
47524;BME280;33253;42.144;25.884;2023-02-03T05:07:22;100933.16;;;2.14;98.01
47524;BME280;33253;42.144;25.884;2023-02-03T05:13:09;100926.88;;;1.98;98.10
47524;BME280;33253;42.144;25.884;2023-02-03T05:15:36;100907.75;;;1.71;100.00
47524;BME280;33253;42.144;25.884;2023-02-03T05:18:01;100943.72;;;1.86;100.00
47524;BME280;33253;42.144;25.884;2023-02-03T05:20:27;100869.94;;;1.33;100.00
47524;BME280;33253;42.144;25.884;2023-02-03T05:22:52;100938.06;;;1.57;100.00
47524;BME280;33253;42.144;25.884;2023-02-03T05:25:17;100947.34;;;1.67;100.00
47524;BME280;33253;42.144;25.884;2023-02-03T05:27:43;100944.31;;;1.61;100.00
47524;BME280;33253;42.144;25.884;2023-02-03T05:30:10;100948.97;;;1.67;100.00
47524;BME280;33253;42.144;25.884;2023-02-03T05:32:36;100908.72;;;1.40;100.00
47524;BME280;33253;42.144;25.884;2023-02-03T05:35:01;100966.91;;;1.68;100.00
47524;BME280;33253;42.144;25.884;2023-02-03T05:37:27;100942.03;;;1.54;100.00
47524;BME280;33253;42.144;25.884;2023-02-03T05:39:52;100921.31;;;1.39;100.00
47524;BME280;33253;42.144;25.884;2023-02-03T05:42:17;100981.03;;;1.75;100.00
47524;BME280;33253;42.144;25.884;2023-02-03T05:44:43;100936.28;;;1.56;100.00
47524;BME280;33253;42.144;25.884;2023-02-03T05:47:08;100953.19;;;1.66;100.00
47524;BME280;33253;42.144;25.884;2023-02-03T05:49:35;100971.63;;;1.74;100.00
47524;BME280;33253;42.144;25.884;2023-02-03T05:52:00;100986.66;;;1.71;100.00
47524;BME280;33253;42.144;25.884;2023-02-03T05:54:26;100983.75;;;1.56;100.00
47524;BME280;33253;42.144;25.884;2023-02-03T05:56:51;100981.06;;;1.54;100.00
47524;BME280;33253;42.144;25.884;2023-02-03T05:59:17;100974.06;;;1.52;100.00
47524;BME280;33253;42.144;25.884;2023-02-03T06:01:42;100970.28;;;1.47;100.00
47524;BME280;33253;42.144;25.884;2023-02-03T06:04:08;100958.09;;;1.42;100.00
47524;BME280;33253;42.144;25.884;2023-02-03T06:06:33;100980.44;;;1.57;100.00
47524;BME280;33253;42.144;25.884;2023-02-03T06:09:00;100993.91;;;1.66;100.00
47524;BME280;33253;42.144;25.884;2023-02-03T06:11:27;100993.66;;;1.63;100.00
47524;BME280;33253;42.144;25.884;2023-02-03T06:13:53;100999.00;;;1.66;100.00
47524;BME280;33253;42.144;25.884;2023-02-03T06:16:19;100991.91;;;1.62;100.00
47524;BME280;33253;42.144;25.884;2023-02-03T06:18:44;100990.22;;;1.63;100.00
47524;BME280;33253;42.144;25.884;2023-02-03T06:21:10;101002.66;;;1.80;100.00
47524;BME280;33253;42.144;25.884;2023-02-03T06:23:35;100929.34;;;1.43;100.00
47524;BME280;33253;42.144;25.884;2023-02-03T06:26:00;101009.50;;;1.91;100.00
47524;BME280;33253;42.144;25.884;2023-02-03T06:28:26;101009.38;;;1.90;100.00
47524;BME280;33253;42.144;25.884;2023-02-03T06:31:11;100997.59;;;1.70;100.00
47524;BME280;33253;42.144;25.884;2023-02-03T06:33:37;101013.06;;;1.83;100.00
47524;BME280;33253;42.144;25.884;2023-02-03T06:36:03;101018.53;;;1.88;100.00
47524;BME280;33253;42.144;25.884;2023-02-03T06:38:28;101012.72;;;1.78;100.00
47524;BME280;33253;42.144;25.884;2023-02-03T06:40:53;100968.22;;;1.53;100.00
47524;BME280;33253;42.144;25.884;2023-02-03T06:43:19;101005.97;;;1.79;100.00
47524;BME280;33253;42.144;25.884;2023-02-03T06:45:45;101037.47;;;2.02;100.00
47524;BME280;33253;42.144;25.884;2023-02-03T06:48:11;101034.44;;;2.06;100.00
47524;BME280;33253;42.144;25.884;2023-02-03T06:50:36;101028.25;;;1.92;100.00
47524;BME280;33253;42.144;25.884;2023-02-03T06:53:02;101031.88;;;1.96;100.00
47524;BME280;33253;42.144;25.884;2023-02-03T06:55:27;101039.63;;;2.07;100.00
47524;BME280;33253;42.144;25.884;2023-02-03T06:57:53;101037.47;;;2.02;100.00
47524;BME280;33253;42.144;25.884;2023-02-03T07:00:19;101056.66;;;2.19;100.00
47524;BME280;33253;42.144;25.884;2023-02-03T07:02:45;101047.50;;;2.10;100.00
47524;BME280;33253;42.144;25.884;2023-02-03T07:05:11;101072.28;;;2.34;100.00
47524;BME280;33253;42.144;25.884;2023-02-03T07:07:36;101058.28;;;2.29;100.00
47524;BME280;33253;42.144;25.884;2023-02-03T07:10:04;101052.78;;;2.34;100.00
47524;BME280;33253;42.144;25.884;2023-02-03T07:12:30;101067.41;;;2.47;100.00
47524;BME280;33253;42.144;25.884;2023-02-03T07:14:55;101082.16;;;2.51;100.00
47524;BME280;33253;42.144;25.884;2023-02-03T07:17:21;101074.13;;;2.57;100.00
47524;BME280;33253;42.144;25.884;2023-02-03T07:19:46;101049.19;;;2.42;100.00
47524;BME280;33253;42.144;25.884;2023-02-03T07:22:12;101093.41;;;2.75;100.00
47524;BME280;33253;42.144;25.884;2023-02-03T07:24:37;101095.78;;;2.84;100.00
47524;BME280;33253;42.144;25.884;2023-02-03T07:27:02;101084.56;;;2.82;100.00
47524;BME280;33253;42.144;25.884;2023-02-03T07:29:28;101109.41;;;2.85;100.00
47524;BME280;33253;42.144;25.884;2023-02-03T07:31:54;101102.91;;;2.88;100.00
47524;BME280;33253;42.144;25.884;2023-02-03T07:34:19;101097.72;;;2.77;100.00
47524;BME280;33253;42.144;25.884;2023-02-03T07:36:45;101090.78;;;2.64;100.00
47524;BME280;33253;42.144;25.884;2023-02-03T07:39:10;101046.53;;;2.41;100.00
47524;BME280;33253;42.144;25.884;2023-02-03T07:41:36;101098.06;;;2.59;100.00
47524;BME280;33253;42.144;25.884;2023-02-03T07:44:01;101097.94;;;2.57;100.00
47524;BME280;33253;42.144;25.884;2023-02-03T07:46:27;101104.44;;;2.54;100.00
47524;BME280;33253;42.144;25.884;2023-02-03T07:48:52;101069.34;;;2.39;100.00
47524;BME280;33253;42.144;25.884;2023-02-03T07:51:18;101089.56;;;2.48;100.00
47524;BME280;33253;42.144;25.884;2023-02-03T07:53:44;101090.19;;;2.56;100.00
47524;BME280;33253;42.144;25.884;2023-02-03T07:56:09;101100.03;;;2.73;100.00
47524;BME280;33253;42.144;25.884;2023-02-03T07:58:36;101094.88;;;2.84;100.00
47524;BME280;33253;42.144;25.884;2023-02-03T08:01:09;101088.78;;;2.82;100.00
47524;BME280;33253;42.144;25.884;2023-02-03T08:03:34;101091.97;;;3.01;100.00
47524;BME280;33253;42.144;25.884;2023-02-03T08:06:00;101087.34;;;3.07;100.00
47524;BME280;33253;42.144;25.884;2023-02-03T08:08:25;101090.38;;;3.14;100.00
47524;BME280;33253;42.144;25.884;2023-02-03T08:10:50;101094.53;;;3.23;100.00
47524;BME280;33253;42.144;25.884;2023-02-03T08:13:16;101105.66;;;3.36;100.00
47524;BME280;33253;42.144;25.884;2023-02-03T08:15:41;101095.81;;;3.40;100.00
47524;BME280;33253;42.144;25.884;2023-02-03T08:18:07;101114.31;;;3.60;100.00
47524;BME280;33253;42.144;25.884;2023-02-03T08:20:33;101118.00;;;3.76;100.00
47524;BME280;33253;42.144;25.884;2023-02-03T08:22:59;101111.25;;;3.88;100.00
47524;BME280;33253;42.144;25.884;2023-02-03T08:25:24;101108.59;;;3.98;100.00
47524;BME280;33253;42.144;25.884;2023-02-03T08:27:54;101110.06;;;4.07;98.98
47524;BME280;33253;42.144;25.884;2023-02-03T08:30:19;101078.03;;;4.00;99.52
47524;BME280;33253;42.144;25.884;2023-02-03T08:32:45;101133.28;;;4.33;96.70
47524;BME280;33253;42.144;25.884;2023-02-03T08:35:10;101122.53;;;4.37;93.66
47524;BME280;33253;42.144;25.884;2023-02-03T08:37:36;101131.97;;;4.50;90.70
47524;BME280;33253;42.144;25.884;2023-02-03T08:40:02;101133.16;;;4.56;87.12
47524;BME280;33253;42.144;25.884;2023-02-03T08:42:28;101144.97;;;4.65;86.09
47524;BME280;33253;42.144;25.884;2023-02-03T08:44:53;101136.63;;;4.56;87.38
47524;BME280;33253;42.144;25.884;2023-02-03T08:47:19;101107.38;;;4.41;88.66
47524;BME280;33253;42.144;25.884;2023-02-03T08:49:44;101147.84;;;4.70;89.18
47524;BME280;33253;42.144;25.884;2023-02-03T08:52:11;101144.19;;;4.66;89.64
47524;BME280;33253;42.144;25.884;2023-02-03T08:54:38;101147.31;;;4.62;88.14
47524;BME280;33253;42.144;25.884;2023-02-03T08:57:04;101157.06;;;4.68;86.83
47524;BME280;33253;42.144;25.884;2023-02-03T08:59:30;101158.16;;;4.83;86.18
47524;BME280;33253;42.144;25.884;2023-02-03T09:04:57;101131.81;;;4.73;85.04
47524;BME280;33253;42.144;25.884;2023-02-03T09:07:23;101159.94;;;4.96;83.20
47524;BME280;33253;42.144;25.884;2023-02-03T09:09:48;101165.81;;;5.07;83.65
47524;BME280;33253;42.144;25.884;2023-02-03T09:12:14;101144.16;;;4.90;83.39
47524;BME280;33253;42.144;25.884;2023-02-03T09:14:39;101167.38;;;4.93;83.32
47524;BME280;33253;42.144;25.884;2023-02-03T09:17:05;101162.16;;;4.92;85.28
47524;BME280;33253;42.144;25.884;2023-02-03T09:19:34;101147.28;;;4.86;83.57
47524;BME280;33253;42.144;25.884;2023-02-03T09:22:00;101158.28;;;4.85;84.47
47524;BME280;33253;42.144;25.884;2023-02-03T09:24:26;101162.69;;;4.99;86.91
47524;BME280;33253;42.144;25.884;2023-02-03T09:26:51;101158.59;;;5.01;87.67
47524;BME280;33253;42.144;25.884;2023-02-03T09:29:18;101149.22;;;5.02;86.68
47524;BME280;33253;42.144;25.884;2023-02-03T09:31:44;101155.19;;;5.14;84.10
47524;BME280;33253;42.144;25.884;2023-02-03T09:34:11;101145.44;;;5.09;83.88
47524;BME280;33253;42.144;25.884;2023-02-03T09:36:36;101124.06;;;5.08;83.56
47524;BME280;33253;42.144;25.884;2023-02-03T09:39:02;101146.56;;;5.38;82.47
47524;BME280;33253;42.144;25.884;2023-02-03T09:44:05;101102.03;;;5.35;82.46
47524;BME280;33253;42.144;25.884;2023-02-03T09:46:47;101134.66;;;5.63;79.49
47524;BME280;33253;42.144;25.884;2023-02-03T09:49:40;101135.22;;;5.59;80.27
47524;BME280;33253;42.144;25.884;2023-02-03T09:52:13;101111.81;;;5.41;78.87
47524;BME280;33253;42.144;25.884;2023-02-03T09:57:23;101131.97;;;5.62;78.96
47524;BME280;33253;42.144;25.884;2023-02-03T09:59:49;101115.81;;;5.63;81.20
47524;BME280;33253;42.144;25.884;2023-02-03T10:02:27;101128.47;;;5.73;79.01
47524;BME280;33253;42.144;25.884;2023-02-03T10:05:13;101122.00;;;5.78;82.03
47524;BME280;33253;42.144;25.884;2023-02-03T10:18:00;101114.97;;;6.28;82.02
47524;BME280;33253;42.144;25.884;2023-02-03T10:20:37;101114.88;;;6.40;77.62
47524;BME280;33253;42.144;25.884;2023-02-03T10:23:16;101121.19;;;6.31;77.51
47524;BME280;33253;42.144;25.884;2023-02-03T10:25:51;101109.44;;;6.22;76.61
47524;BME280;33253;42.144;25.884;2023-02-03T10:28:35;101086.66;;;5.99;76.04
47524;BME280;33253;42.144;25.884;2023-02-03T10:31:07;101089.22;;;6.13;75.45
47524;BME280;33253;42.144;25.884;2023-02-03T10:33:40;101122.75;;;6.56;76.21
47524;BME280;33253;42.144;25.884;2023-02-03T10:38:55;101084.81;;;7.21;72.67
47524;BME280;33253;42.144;25.884;2023-02-03T10:41:24;101108.94;;;7.38;72.62
47524;BME280;33253;42.144;25.884;2023-02-03T10:43:51;101105.59;;;7.54;70.49
47524;BME280;33253;42.144;25.884;2023-02-03T10:46:37;101094.88;;;7.18;69.62
47524;BME280;33253;42.144;25.884;2023-02-03T10:49:03;101087.28;;;7.19;74.62
47524;BME280;33253;42.144;25.884;2023-02-03T10:51:35;101101.16;;;7.51;73.64
47524;BME280;33253;42.144;25.884;2023-02-03T10:54:01;101100.88;;;7.32;70.05
47524;BME280;33253;42.144;25.884;2023-02-03T10:56:37;101091.06;;;7.54;73.03
47524;BME280;33253;42.144;25.884;2023-02-03T10:59:04;101090.34;;;7.42;68.62
47524;BME280;33253;42.144;25.884;2023-02-03T11:01:40;101088.94;;;7.47;66.98
47524;BME280;33253;42.144;25.884;2023-02-03T11:04:22;101065.81;;;7.47;68.48
47524;BME280;33253;42.144;25.884;2023-02-03T11:07:03;101069.53;;;7.97;63.99
47524;BME280;33253;42.144;25.884;2023-02-03T11:09:48;101062.09;;;8.02;58.67
47524;BME280;33253;42.144;25.884;2023-02-03T11:12:18;101046.25;;;7.79;58.60
47524;BME280;33253;42.144;25.884;2023-02-03T11:14:51;101049.41;;;7.75;60.21
47524;BME280;33253;42.144;25.884;2023-02-03T11:17:20;101016.28;;;7.50;59.29
47524;BME280;33253;42.144;25.884;2023-02-03T11:19:48;101051.56;;;7.82;61.21
47524;BME280;33253;42.144;25.884;2023-02-03T11:24:51;101039.84;;;7.87;62.02
47524;BME280;33253;42.144;25.884;2023-02-03T11:27:17;101061.13;;;7.85;60.62
47524;BME280;33253;42.144;25.884;2023-02-03T11:29:46;101045.97;;;7.89;61.62
47524;BME280;33253;42.144;25.884;2023-02-03T11:35:19;101065.59;;;7.14;60.10
47524;BME280;33253;42.144;25.884;2023-02-03T11:37:51;101064.16;;;6.91;61.54
47524;BME280;33253;42.144;25.884;2023-02-03T11:45:27;101036.13;;;7.52;62.54
47524;BME280;33253;42.144;25.884;2023-02-03T12:01:44;101008.13;;;7.72;62.67
47524;BME280;33253;42.144;25.884;2023-02-03T12:10:27;101000.88;;;7.65;59.67
47524;BME280;33253;42.144;25.884;2023-02-03T12:13:18;100993.16;;;7.65;59.34
47524;BME280;33253;42.144;25.884;2023-02-03T12:21:34;101026.13;;;7.87;57.05
47524;BME280;33253;42.144;25.884;2023-02-03T12:29:40;101010.16;;;7.92;58.50
47524;BME280;33253;42.144;25.884;2023-02-03T12:35:01;100997.78;;;7.70;59.50
47524;BME280;33253;42.144;25.884;2023-02-03T12:37:43;100983.88;;;7.67;60.59
47524;BME280;33253;42.144;25.884;2023-02-03T12:40:32;100991.03;;;7.57;58.70
47524;BME280;33253;42.144;25.884;2023-02-03T12:43:03;100988.66;;;7.60;60.66
47524;BME280;33253;42.144;25.884;2023-02-03T12:45:35;100976.69;;;7.46;60.81
47524;BME280;33253;42.144;25.884;2023-02-03T12:48:11;100977.66;;;7.48;61.98
47524;BME280;33253;42.144;25.884;2023-02-03T12:50:47;100987.03;;;7.48;60.31
47524;BME280;33253;42.144;25.884;2023-02-03T12:53:38;100985.47;;;7.50;59.69
47524;BME280;33253;42.144;25.884;2023-02-03T12:56:12;100990.94;;;7.41;59.64
47524;BME280;33253;42.144;25.884;2023-02-03T12:58:43;100989.38;;;7.43;59.71
47524;BME280;33253;42.144;25.884;2023-02-03T13:04:09;100978.38;;;7.45;61.46
47524;BME280;33253;42.144;25.884;2023-02-03T13:06:51;100982.81;;;7.48;61.15
47524;BME280;33253;42.144;25.884;2023-02-03T13:17:13;100982.81;;;7.48;61.00
47524;BME280;33253;42.144;25.884;2023-02-03T13:19:43;100944.78;;;7.27;61.24
47524;BME280;33253;42.144;25.884;2023-02-03T13:22:12;100979.09;;;7.43;60.65
47524;BME280;33253;42.144;25.884;2023-02-03T13:24:40;100980.31;;;7.50;60.73
47524;BME280;33253;42.144;25.884;2023-02-03T13:41:27;100959.41;;;7.28;60.87
47524;BME280;33253;42.144;25.884;2023-02-03T13:43:58;100964.47;;;7.27;61.12
47524;BME280;33253;42.144;25.884;2023-02-03T13:46:30;100961.69;;;7.24;60.55
47524;BME280;33253;42.144;25.884;2023-02-03T13:48:59;100960.84;;;7.23;62.04
47524;BME280;33253;42.144;25.884;2023-02-03T13:51:29;100962.41;;;7.21;61.51
47524;BME280;33253;42.144;25.884;2023-02-03T13:54:02;100955.88;;;7.26;60.03
47524;BME280;33253;42.144;25.884;2023-02-03T13:56:33;100905.41;;;6.97;59.57
47524;BME280;33253;42.144;25.884;2023-02-03T13:59:00;100932.31;;;7.19;60.01
47524;BME280;33253;42.144;25.884;2023-02-03T14:03:55;100945.00;;;7.31;58.41
47524;BME280;33253;42.144;25.884;2023-02-03T14:14:42;100940.63;;;7.15;59.73
47524;BME280;33253;42.144;25.884;2023-02-03T14:23:07;100953.81;;;7.06;61.56
47524;BME280;33253;42.144;25.884;2023-02-03T14:25:41;100936.19;;;6.82;61.36
47524;BME280;33253;42.144;25.884;2023-02-03T14:28:15;100951.41;;;6.94;61.11
47524;BME280;33253;42.144;25.884;2023-02-03T14:31:01;100953.38;;;6.98;61.17
47524;BME280;33253;42.144;25.884;2023-02-03T14:36:49;100956.03;;;7.00;61.52
47524;BME280;33253;42.144;25.884;2023-02-03T14:41:52;100949.84;;;7.11;62.87
47524;BME280;33253;42.144;25.884;2023-02-03T14:47:44;100950.72;;;7.11;61.42
47524;BME280;33253;42.144;25.884;2023-02-03T14:55:34;100951.19;;;7.04;62.92
47524;BME280;33253;42.144;25.884;2023-02-03T14:58:06;100946.53;;;6.99;62.36
47524;BME280;33253;42.144;25.884;2023-02-03T15:00:40;100946.53;;;6.99;62.31
47524;BME280;33253;42.144;25.884;2023-02-03T15:08:33;100956.38;;;6.91;63.45
47524;BME280;33253;42.144;25.884;2023-02-03T15:13:51;100952.22;;;6.93;63.02
47524;BME280;33253;42.144;25.884;2023-02-03T15:16:19;100950.94;;;6.86;62.52
47524;BME280;33253;42.144;25.884;2023-02-03T15:18:53;100947.94;;;6.78;62.63
47524;BME280;33253;42.144;25.884;2023-02-03T15:21:19;100945.88;;;6.73;62.99
47524;BME280;33253;42.144;25.884;2023-02-03T15:23:46;100937.81;;;6.67;64.37